createdAt,value
2023-01-05T08:44:00.508Z,99553.16
2023-01-05T08:46:34.663Z,99559.63
2023-01-05T08:49:09.519Z,99558.13
2023-01-05T08:51:38.227Z,99561.91
2023-01-05T08:54:05.870Z,99566.97
2023-01-05T08:56:38.562Z,99570.91
2023-01-05T08:59:07.944Z,99581.50
2023-01-05T09:01:36.909Z,99564.22
2023-01-05T09:04:04.529Z,99574.44
2023-01-05T09:06:32.260Z,99564.44
2023-01-05T09:08:59.644Z,99569.28
2023-01-05T09:11:27.365Z,99565.25
2023-01-05T09:14:00.551Z,99573.19
2023-01-05T09:17:06.508Z,99581.72
2023-01-05T09:19:22.506Z,99577.81
2023-01-05T09:21:49.988Z,99582.16
2023-01-05T09:24:17.348Z,99588.28
2023-01-05T09:26:45.331Z,99597.38
2023-01-05T09:29:13.732Z,99600.25
2023-01-05T09:31:42.519Z,99591.50
2023-01-05T09:34:10.720Z,99579.88
2023-01-05T09:36:39.084Z,99588.81
2023-01-05T09:39:07.083Z,99583.09
2023-01-05T09:41:58.916Z,99577.06
2023-01-05T09:44:44.046Z,99583.72
2023-01-05T09:47:26.268Z,99576.94
2023-01-05T09:49:54.775Z,99584.66
2023-01-05T09:52:22.917Z,99593.66
2023-01-05T09:54:50.651Z,99591.63
2023-01-05T09:57:29.083Z,99586.56
2023-01-05T10:00:05.985Z,99589.69
2023-01-05T10:03:12.996Z,99587.66
2023-01-05T10:05:47.387Z,99583.22
2023-01-05T10:08:36.907Z,99583.88
2023-01-05T10:11:42.633Z,99577.44
2023-01-05T10:14:38.473Z,99583.34
2023-01-05T10:21:00.843Z,99580.13
2023-01-05T10:24:18.373Z,99574.06
2023-01-05T10:27:54.775Z,99569.16
2023-01-05T10:30:31.487Z,99559.41
2023-01-05T10:33:41.607Z,99555.44
2023-01-05T10:37:45.089Z,99572.50
2023-01-05T10:40:57.453Z,99558.91
2023-01-05T10:44:28.519Z,99562.78
2023-01-05T10:46:55.963Z,99562.75
2023-01-05T10:49:32.555Z,99554.25
2023-01-05T10:52:01.703Z,99545.97
2023-01-05T10:54:47.378Z,99556.31
2023-01-05T10:57:34.859Z,99553.78
2023-01-05T11:00:19.883Z,99549.53
2023-01-05T11:02:59.050Z,99558.47
2023-01-05T11:05:42.753Z,99552.28
2023-01-05T11:08:26.860Z,99539.00
2023-01-05T11:11:07.256Z,99542.97
2023-01-05T11:13:48.555Z,99547.13
2023-01-05T11:16:27.756Z,99539.81
2023-01-05T11:19:12.937Z,99534.66
2023-01-05T11:21:45.571Z,99533.69
2023-01-05T11:24:24.996Z,99531.25
2023-01-05T11:26:59.249Z,99533.13
2023-01-05T11:29:30.891Z,99533.69
2023-01-05T11:32:13.625Z,99534.63
2023-01-05T11:34:52.611Z,99535.47
2023-01-05T11:37:31.762Z,99525.47
2023-01-05T11:40:05.191Z,99525.53
2023-01-05T11:42:47.356Z,99519.91
2023-01-05T11:45:31.839Z,99522.69
2023-01-05T12:05:40.476Z,99525.25
2023-01-05T12:08:39.183Z,99518.84
2023-01-05T12:24:22.827Z,99504.97
2023-01-05T12:27:30.996Z,99500.50
2023-01-05T12:34:25.204Z,99493.13
2023-01-05T12:37:44.332Z,99496.00
2023-01-05T12:40:55.771Z,99498.59
2023-01-05T12:44:17.945Z,99497.16
2023-01-05T12:47:55.347Z,99505.09
2023-01-05T12:51:16.651Z,99496.75
2023-01-05T12:55:01.210Z,99498.84
2023-01-05T13:17:53.927Z,99512.38
2023-01-05T13:20:46.281Z,99502.09
2023-01-05T13:24:02.618Z,99498.16
2023-01-05T13:26:35.941Z,99495.84
2023-01-05T13:29:05.514Z,99495.94
2023-01-05T13:32:46.788Z,99487.03
2023-01-05T13:36:11.289Z,99484.78
2023-01-05T13:39:08.596Z,99490.47
2023-01-05T13:42:35.548Z,99486.56
2023-01-05T13:46:04.650Z,99490.19
2023-01-05T13:49:23.440Z,99490.19
2023-01-05T13:52:30.919Z,99488.03
2023-01-05T13:55:03.988Z,99481.97
2023-01-05T13:57:42.279Z,99485.38
2023-01-05T14:00:43.077Z,99485.13
2023-01-05T14:03:10.271Z,99483.78
2023-01-05T14:06:08.545Z,99490.38
2023-01-05T14:08:40.708Z,99488.66
2023-01-05T14:11:15.704Z,99492.03
2023-01-05T14:14:31.925Z,99492.03
2023-01-05T14:16:59.367Z,99487.16
2023-01-05T14:22:36.877Z,99490.44
2023-01-05T14:26:01.805Z,99497.31
2023-01-05T14:28:29.036Z,99492.28
2023-01-05T14:31:13.736Z,99493.38
2023-01-05T14:33:57.383Z,99495.78
2023-01-05T14:37:00.270Z,99488.47
2023-01-05T14:39:44.977Z,99490.88
2023-01-05T14:42:12.090Z,99488.91
2023-01-05T14:45:06.843Z,99496.31
2023-01-05T14:47:47.128Z,99494.81
2023-01-05T14:50:42.124Z,99491.13
2023-01-05T14:53:20.603Z,99491.84
2023-01-05T14:55:55.115Z,99498.91
2023-01-05T14:58:43.430Z,99489.78
2023-01-05T15:01:19.309Z,99498.03
2023-01-05T15:04:11.307Z,99497.44
2023-01-05T15:11:44.227Z,99489.97
2023-01-05T15:14:38.434Z,99488.53
